Hovedside
METAR-TAF:

METAR-TAF

Lufthavner :

Rørvik lufthavn. Ryum

Rørvik, Norge

breddegrad: 64-50N, lengdegrad: 011-09E, høyde over havet: 4 m

Gjeldene værobservasjon

Denne rapporten ble laget for 1 time og 12 minutter siden, klokken 11:50 UTC
Vind 2 kt fra skiftende retning
Temperatur 18°C
Luftfuktighet 56%
Trykk 1006 hPa
Sikt 10 km eller mer
ingen skyer under 1500 m og ingen bygeskyer

METAR: ENRM 151150Z VRB02KT CAVOK 18/09 Q1006

Tid: 15:02 (13:02 UTC)

Varsel

Denne rapporten ble laget for 5 timer og 2 minutter siden, klokken 08:00 UTC
Varsel gyldig fra 15. klokken 09 UTC til 15. klokken 13 UTC
Vind 5 kt fra Øst-sørøst
Sikt 10 km eller mer
Få skyer i en høyde av 2000 ft
Brutte skyer i en høyde av 6000 ft

TAF: ENRM 150800Z 1509/1513 12005KT 9999 FEW020 BKN060

Værobservasjoner og værvarsel for over 4000 flyplasser (METAR- og TAF-rapporter).

Tilgjengelige stasjoner er representert av de røde og gule prikkene på kartet.

Hold musepekeren over prikken for å se navnet på stasjonen.

Klikk så for å se værobservasjoner og -varsler.

For å forandre kartet kan du klikke på den grønne knappen med svart kryss for å zoome inn, på den grønne knappen med strek for å zoome ut, eller på de grønne pilene for å se tilstøtende kart.


METAR-TAF: